Terminal Aerodrome Forecast
Issued by NWS

Home | Current Version | Previous Version | Text Only | Print | Product List | Glossary On
Versions: 1 2 3 4 5 6 7 8 9 10 11 12 13 14 15 16
000
FTUS44 KLZK 240900 AAA
TAFHRO
TAF AMD
KHRO 241000Z 2410/2506 15012KT P6SM VCTS SCT025 OVC040CB
      TEMPO 2410/2412 6SM -TSRA BR OVC025CB
     FM241200 15012KT P6SM VCTS SCT025 OVC040CB
      TEMPO 2412/2416 4SM -TSRA BR OVC025CB
     FM241600 16008G18KT P6SM VCTS BKN050CB OVC100 PROB30 2419/2424
      2SM TSRA BKN010 OVC025CB
     FM250000 17010G20KT 5SM -TSRA BR OVC025CB=

USA.gov is the U.S. government's official web portal to all federal, state and local government web resources and services.